Lake Mead Rancheros, Arizona
Current Conditions -  °F | °C
As of 5:51 PM on Friday 19 Dec 2014 (Local Time) from KIGM Reporting Station
Clear Clear  
Wind Chill: 40°   Ceiling: Unl
Heat Index: 44°   Visibility: 10mi
Dew Point: 34°   Wind: 8mph
Humidity: 68%   Direction: 210°SSW
Pressure: 30.18"   Gusts: NA
Location:  35.2036°N, 114.02°W
Report Text: KIGM 200051Z AUTO 21007KT 10SM CLR 07/01 A3018 RMK AO2 SLP205 T00670011
Loading
Personal Weather Stations






























Interactive Weather Map New forecast layout! Learn more

10-Day Weather Forecast

Advertisements
Track Severe Weather on mobile